Denver, Colorado
Current Conditions -  °F | °C
As of 8:58 PM on Sunday 19 Oct 2014 (Local Time) from KBKF Reporting Station
Few Clouds Few Clouds  
Wind Chill: 12°   Ceiling: Unl
Heat Index: 12°   Visibility: 10mi
Dew Point:   Wind: 10mph
Humidity: 48%   Direction: 140°SE
Pressure: 30.17"   Gusts: NA
Location:  39.74°N, 104.99°W
Report Text: KBKF 200258Z 14009KT 10SM FEW150 12/02 A3017 RMK AO2A SLP175 T01230016 52012
Loading
Personal Weather Stations






























Interactive Weather Map
Tropical Storm Tracking
New forecast layout! Learn more

10-Day Weather Forecast

Advertisements
Track Severe Weather on mobile